createdAt,value
2019-01-03T00:02:11.125Z,69.66
2019-01-03T00:05:04.846Z,70.94
2019-01-03T00:07:54.247Z,70.94
2019-01-03T00:10:45.325Z,71.16
2019-01-03T00:13:34.944Z,70.68
2019-01-03T00:16:40.922Z,70.13
2019-01-03T00:19:29.508Z,70.29
2019-01-03T00:22:18.699Z,70.08
2019-01-03T00:25:18.182Z,69.29
2019-01-03T00:28:20.703Z,69.59
2019-01-03T00:31:10.111Z,70.16
2019-01-03T00:34:10.152Z,69.94
2019-01-03T00:37:09.805Z,69.66
2019-01-03T00:39:48.034Z,69.73
2019-01-03T00:42:47.900Z,69.69
2019-01-03T00:45:37.045Z,69.86
2019-01-03T00:48:26.471Z,70.50
2019-01-03T00:51:15.748Z,70.93
2019-01-03T00:54:06.418Z,71.94
2019-01-03T00:57:12.286Z,71.16
2019-01-03T01:00:01.392Z,71.21
2019-01-03T01:03:00.282Z,71.00
2019-01-03T01:05:50.953Z,71.09
2019-01-03T01:08:53.782Z,71.73
2019-01-03T01:11:56.711Z,72.12
2019-01-03T01:14:52.550Z,73.07
2019-01-03T01:17:44.173Z,73.79
2019-01-03T01:20:32.670Z,75.08
2019-01-03T01:23:21.798Z,74.86
2019-01-03T01:26:12.489Z,75.71
2019-01-03T01:29:01.792Z,76.15
2019-01-03T01:31:58.318Z,76.82
2019-01-03T01:34:49.422Z,76.65
2019-01-03T01:37:42.559Z,77.34
2019-01-03T01:40:24.316Z,78.12
2019-01-03T01:43:25.290Z,78.21
2019-01-03T01:46:16.209Z,78.03
2019-01-03T01:49:13.026Z,78.14
2019-01-03T01:52:08.271Z,77.71
2019-01-03T01:55:17.238Z,77.71
2019-01-03T01:58:06.650Z,77.90
2019-01-03T02:01:01.391Z,78.07
2019-01-03T02:03:56.058Z,77.74
2019-01-03T02:06:45.187Z,78.58
2019-01-03T02:09:39.085Z,78.53
2019-01-03T02:12:36.022Z,78.41
2019-01-03T02:15:42.129Z,78.65
2019-01-03T02:18:31.238Z,78.88
2019-01-03T02:21:35.972Z,78.96
2019-01-03T02:24:22.122Z,79.15
2019-01-03T02:27:12.871Z,78.85
2019-01-03T02:30:04.963Z,78.50
2019-01-03T02:33:02.495Z,78.52
2019-01-03T02:36:02.303Z,78.55
2019-01-03T02:38:55.980Z,78.62
2019-01-03T02:41:48.845Z,78.66
2019-01-03T02:44:49.067Z,78.56
2019-01-03T02:47:38.192Z,78.54
2019-01-03T02:50:21.132Z,78.70
2019-01-03T02:53:10.908Z,78.80
2019-01-03T02:56:00.244Z,79.13
2019-01-03T02:58:46.243Z,78.34
2019-01-03T03:01:36.979Z,78.59
2019-01-03T03:04:26.447Z,78.57
2019-01-03T03:07:26.274Z,78.45
2019-01-03T03:10:26.040Z,78.65
2019-01-03T03:13:15.866Z,78.73
2019-01-03T03:16:09.644Z,79.35
2019-01-03T03:18:59.938Z,79.43
2019-01-03T03:21:42.582Z,79.86
2019-01-03T03:24:39.455Z,80.19
2019-01-03T03:27:28.930Z,80.39
2019-01-03T03:30:22.418Z,80.50
2019-01-03T03:33:09.357Z,80.76
2019-01-03T03:36:01.560Z,81.21
2019-01-03T03:39:01.157Z,80.40
2019-01-03T03:41:52.302Z,81.12
2019-01-03T03:44:57.955Z,81.01
2019-01-03T03:47:47.373Z,80.73
2019-01-03T03:50:41.463Z,81.17
2019-01-03T03:53:32.131Z,80.99
2019-01-03T03:56:31.563Z,81.01
2019-01-03T03:59:22.238Z,80.76
2019-01-03T04:02:22.229Z,80.58
2019-01-03T04:05:11.590Z,80.31
2019-01-03T04:08:01.649Z,80.66
2019-01-03T04:10:50.872Z,80.36
2019-01-03T04:13:49.884Z,80.19
2019-01-03T04:16:43.376Z,80.54
2019-01-03T04:19:43.358Z,81.24
2019-01-03T04:22:34.358Z,81.02
2019-01-03T04:25:30.737Z,80.42
2019-01-03T04:28:19.905Z,81.17
2019-01-03T04:31:09.398Z,81.20
2019-01-03T04:34:09.201Z,81.63
2019-01-03T04:37:00.752Z,81.75
2019-01-03T04:39:58.685Z,81.76
2019-01-03T04:42:48.015Z,81.92
2019-01-03T04:45:32.470Z,81.71
2019-01-03T04:48:21.794Z,81.75
2019-01-03T04:51:10.951Z,81.99
2019-01-03T04:54:00.538Z,81.19
2019-01-03T04:56:57.303Z,81.42
2019-01-03T04:59:56.868Z,81.52
2019-01-03T05:02:45.963Z,82.24
2019-01-03T05:05:51.336Z,81.89
2019-01-03T05:08:53.191Z,81.48
2019-01-03T05:11:58.912Z,81.94
2019-01-03T05:14:52.462Z,82.25
2019-01-03T05:17:41.565Z,81.86
2019-01-03T05:20:41.406Z,82.43
2019-01-03T05:23:31.006Z,82.37
2019-01-03T05:26:20.662Z,81.25
2019-01-03T05:29:09.721Z,81.28
2019-01-03T05:31:59.500Z,80.97
2019-01-03T05:34:48.773Z,80.69
2019-01-03T05:37:37.972Z,81.41
2019-01-03T05:40:35.957Z,82.62
2019-01-03T05:43:34.739Z,82.36
2019-01-03T05:46:33.061Z,82.15
2019-01-03T05:49:32.625Z,81.98
2019-01-03T05:52:38.541Z,81.73
2019-01-03T05:55:27.583Z,81.98
2019-01-03T05:58:15.265Z,81.50
2019-01-03T06:01:04.865Z,81.71
2019-01-03T06:03:58.393Z,82.12
2019-01-03T06:06:58.108Z,82.32
2019-01-03T06:09:54.831Z,82.31
2019-01-03T06:12:41.796Z,81.54
2019-01-03T06:15:35.698Z,81.67
2019-01-03T06:18:27.027Z,81.71
2019-01-03T06:21:32.756Z,81.47
2019-01-03T06:24:21.940Z,81.90
2019-01-03T06:27:16.171Z,81.82
2019-01-03T06:30:05.520Z,82.41
2019-01-03T06:32:53.040Z,82.50
2019-01-03T06:35:57.444Z,82.92
2019-01-03T06:38:43.698Z,83.14
2019-01-03T06:41:34.437Z,83.11
2019-01-03T06:44:34.584Z,82.62
2019-01-03T06:47:23.782Z,82.03
2019-01-03T06:50:13.113Z,82.27
2019-01-03T06:53:02.193Z,83.03
2019-01-03T06:56:08.143Z,82.53
2019-01-03T06:58:57.571Z,82.76
2019-01-03T07:01:46.940Z,82.28
2019-01-03T07:04:40.703Z,82.48
2019-01-03T07:07:29.505Z,82.33
2019-01-03T07:10:18.848Z,83.66
2019-01-03T07:13:12.707Z,82.86
2019-01-03T07:16:06.704Z,82.70
2019-01-03T07:19:00.489Z,82.72
2019-01-03T07:21:49.882Z,82.22
2019-01-03T07:24:39.111Z,82.36
2019-01-03T07:27:29.720Z,83.17
2019-01-03T07:30:29.678Z,82.54
2019-01-03T07:33:18.873Z,82.77
2019-01-03T07:36:12.523Z,82.50
2019-01-03T07:39:03.278Z,82.70
2019-01-03T07:42:00.127Z,82.70
2019-01-03T07:44:54.093Z,82.55
2019-01-03T07:47:49.803Z,82.91
2019-01-03T07:50:41.044Z,82.77
2019-01-03T07:53:25.001Z,83.14
2019-01-03T07:56:15.504Z,82.78
2019-01-03T07:59:06.183Z,82.51
2019-01-03T08:01:56.918Z,82.53
2019-01-03T08:05:02.752Z,82.75
2019-01-03T08:07:52.866Z,82.95
2019-01-03T08:10:43.549Z,82.70
2019-01-03T08:13:31.933Z,82.96
2019-01-03T08:16:21.169Z,83.05
2019-01-03T08:19:05.957Z,82.59
2019-01-03T08:22:09.014Z,82.87
2019-01-03T08:24:58.239Z,82.73
2019-01-03T08:27:51.752Z,83.55
2019-01-03T08:30:39.297Z,83.17
2019-01-03T08:33:48.164Z,83.42
2019-01-03T08:36:37.578Z,83.50
2019-01-03T08:39:27.680Z,83.54
2019-01-03T08:42:17.788Z,84.26
2019-01-03T08:45:13.992Z,84.37
2019-01-03T08:48:22.450Z,84.68
2019-01-03T08:51:32.839Z,84.74
2019-01-03T08:54:21.969Z,84.46
2019-01-03T08:57:05.352Z,85.08
2019-01-03T08:59:54.836Z,84.95
2019-01-03T09:02:48.662Z,85.34
2019-01-03T09:05:51.784Z,85.53
2019-01-03T09:08:41.065Z,85.26
2019-01-03T09:11:26.126Z,85.31
2019-01-03T09:14:31.924Z,86.22
2019-01-03T09:17:31.731Z,86.88
2019-01-03T09:20:26.531Z,86.82
2019-01-03T09:23:15.643Z,86.30
2019-01-03T09:26:04.701Z,86.14
2019-01-03T09:28:58.282Z,86.60
2019-01-03T09:31:47.678Z,87.12
2019-01-03T09:34:44.326Z,88.31
2019-01-03T09:37:35.077Z,87.96
2019-01-03T09:40:41.628Z,86.72
2019-01-03T09:43:44.226Z,86.98
2019-01-03T09:46:15.996Z,86.06
2019-01-03T09:48:47.831Z,85.21
2019-01-03T09:51:19.702Z,85.02
2019-01-03T09:53:51.464Z,83.90
2019-01-03T09:56:23.333Z,82.90
2019-01-03T09:58:55.162Z,83.41
2019-01-03T10:01:27.086Z,83.74
2019-01-03T10:03:58.848Z,84.62
2019-01-03T10:06:30.695Z,84.28
2019-01-03T10:09:02.821Z,83.50
2019-01-03T10:11:34.847Z,83.06
2019-01-03T10:14:06.877Z,83.16
2019-01-03T10:16:38.807Z,80.33
2019-01-03T10:19:11.550Z,81.43
2019-01-03T10:21:43.650Z,81.25
2019-01-03T10:24:15.491Z,81.28
2019-01-03T10:26:47.372Z,81.69
2019-01-03T10:29:19.295Z,80.91
2019-01-03T10:31:51.139Z,81.19
2019-01-03T10:34:23.226Z,80.96
2019-01-03T10:36:55.057Z,80.67
2019-01-03T10:39:26.894Z,81.34
2019-01-03T10:41:58.901Z,82.21
2019-01-03T10:44:31.919Z,81.21
2019-01-03T10:47:04.037Z,80.54
2019-01-03T10:49:37.046Z,80.05
2019-01-03T10:52:09.102Z,81.00
2019-01-03T10:54:41.146Z,80.24
2019-01-03T10:57:15.151Z,79.71
2019-01-03T10:59:48.394Z,76.71
2019-01-03T11:02:21.720Z,76.85
2019-01-03T11:04:53.666Z,76.10
2019-01-03T11:07:25.609Z,77.60
2019-01-03T11:09:57.361Z,77.30
2019-01-03T11:12:37.235Z,77.33
2019-01-03T11:15:09.321Z,76.79
2019-01-03T11:17:41.086Z,76.55
2019-01-03T11:20:13.538Z,76.83
2019-01-03T11:22:45.667Z,76.46
2019-01-03T11:25:17.405Z,76.35
2019-01-03T11:27:49.164Z,76.05
2019-01-03T11:30:21.040Z,76.14
2019-01-03T11:32:53.187Z,75.95
2019-01-03T11:35:25.201Z,76.80
2019-01-03T11:37:57.271Z,76.69
2019-01-03T11:40:29.035Z,77.31
2019-01-03T11:43:00.814Z,77.16
2019-01-03T11:45:32.912Z,78.23
2019-01-03T11:48:04.687Z,77.21
2019-01-03T11:50:36.691Z,76.91
2019-01-03T11:53:08.744Z,76.84
2019-01-03T11:55:40.517Z,76.75
2019-01-03T11:58:12.446Z,76.54
2019-01-03T12:00:44.272Z,77.53
2019-01-03T12:03:16.313Z,77.99
2019-01-03T12:05:48.423Z,78.70
2019-01-03T12:08:20.317Z,78.65
2019-01-03T12:10:52.077Z,78.87
2019-01-03T12:13:23.848Z,79.75
2019-01-03T12:15:55.618Z,79.09
2019-01-03T12:18:27.461Z,80.02
2019-01-03T12:20:59.300Z,80.13
2019-01-03T12:23:31.073Z,80.31
2019-01-03T12:26:02.902Z,81.16
2019-01-03T12:28:34.686Z,81.07
2019-01-03T12:31:06.479Z,81.64
2019-01-03T12:33:38.597Z,82.06
2019-01-03T12:36:11.804Z,81.26
2019-01-03T12:38:43.650Z,81.35
2019-01-03T12:41:15.577Z,81.48
2019-01-03T12:43:47.355Z,81.94
2019-01-03T12:46:19.137Z,81.77
2019-01-03T12:48:50.899Z,81.47
2019-01-03T12:51:22.644Z,81.34
2019-01-03T12:53:54.553Z,81.80
2019-01-03T12:56:26.558Z,82.24
2019-01-03T12:58:58.317Z,82.46
2019-01-03T13:01:30.148Z,83.33
2019-01-03T13:04:01.962Z,82.79
2019-01-03T13:06:33.805Z,82.73
2019-01-03T13:09:09.653Z,83.29
2019-01-03T13:11:41.603Z,83.68
2019-01-03T13:14:13.620Z,84.41
2019-01-03T13:16:45.794Z,85.16
2019-01-03T13:19:18.590Z,85.43
2019-01-03T13:21:50.358Z,85.69
2019-01-03T13:24:22.305Z,86.38
2019-01-03T13:26:54.074Z,86.48
2019-01-03T13:29:25.987Z,87.20
2019-01-03T13:31:57.745Z,86.56
2019-01-03T13:34:29.494Z,87.21
2019-01-03T13:37:01.266Z,86.91
2019-01-03T13:39:33.356Z,87.29
2019-01-03T13:42:05.247Z,86.61
2019-01-03T13:44:37.026Z,86.58
2019-01-03T13:47:08.853Z,86.87
2019-01-03T13:49:40.621Z,87.52
2019-01-03T13:52:12.372Z,87.53
2019-01-03T13:54:44.330Z,88.28
2019-01-03T13:57:16.156Z,88.18
2019-01-03T13:59:47.998Z,88.97
2019-01-03T14:02:19.798Z,89.92
2019-01-03T14:04:51.838Z,89.81
2019-01-03T14:07:23.600Z,89.19
2019-01-03T14:09:55.769Z,88.82
2019-01-03T14:12:30.919Z,88.42
2019-01-03T14:15:02.838Z,88.70
2019-01-03T14:17:34.602Z,89.04
2019-01-03T14:20:09.454Z,89.12
2019-01-03T14:22:41.310Z,89.13
2019-01-03T14:25:13.325Z,89.51
2019-01-03T14:27:45.417Z,89.30
2019-01-03T14:30:17.178Z,89.47
2019-01-03T14:32:48.931Z,89.47
2019-01-03T14:35:20.824Z,89.58
2019-01-03T14:37:52.982Z,89.95
2019-01-03T14:40:24.902Z,90.28
2019-01-03T14:42:56.655Z,90.29
2019-01-03T14:45:28.507Z,90.79
2019-01-03T14:48:00.267Z,90.65
2019-01-03T14:50:32.191Z,90.31
2019-01-03T14:53:04.031Z,90.32
2019-01-03T14:55:36.036Z,89.48
2019-01-03T14:58:07.796Z,90.28
2019-01-03T15:00:39.650Z,90.65
2019-01-03T15:03:11.410Z,89.97
2019-01-03T15:05:43.176Z,89.54
2019-01-03T15:08:15.345Z,89.25
2019-01-03T15:10:47.112Z,89.54
2019-01-03T15:13:18.890Z,90.25
2019-01-03T15:15:50.657Z,90.72
2019-01-03T15:18:22.425Z,90.63
2019-01-03T15:20:54.266Z,91.09
2019-01-03T15:23:26.090Z,91.53
2019-01-03T15:25:57.864Z,91.79
2019-01-03T15:28:29.634Z,92.75
2019-01-03T15:31:01.408Z,92.20
2019-01-03T15:33:33.324Z,91.26
2019-01-03T15:36:05.257Z,92.76
2019-01-03T15:38:37.027Z,93.63
2019-01-03T15:41:08.884Z,93.76
2019-01-03T15:43:40.676Z,93.75
2019-01-03T15:46:12.464Z,93.82
2019-01-03T15:48:44.224Z,91.27
2019-01-03T15:51:16.123Z,90.90
2019-01-03T15:53:47.921Z,91.11
2019-01-03T15:56:19.975Z,91.69
2019-01-03T15:58:51.734Z,91.48
2019-01-03T16:01:23.491Z,91.19
2019-01-03T16:03:55.395Z,91.43
2019-01-03T16:06:27.170Z,91.18
2019-01-03T16:08:59.000Z,91.25
2019-01-03T16:11:30.841Z,91.08
2019-01-03T16:14:02.604Z,91.16
2019-01-03T16:16:34.380Z,91.31
2019-01-03T16:19:06.241Z,91.11
2019-01-03T16:21:38.360Z,91.31
2019-01-03T16:24:10.200Z,91.40
2019-01-03T16:26:41.975Z,91.50
2019-01-03T16:29:13.737Z,91.62
2019-01-03T16:31:45.586Z,91.69
2019-01-03T16:34:17.383Z,91.76
2019-01-03T16:36:49.557Z,92.55
2019-01-03T16:39:21.351Z,91.97
2019-01-03T16:41:53.125Z,91.91
2019-01-03T16:44:24.904Z,92.12
2019-01-03T16:46:57.017Z,92.21
2019-01-03T16:49:28.963Z,92.13
2019-01-03T16:52:00.820Z,91.63
2019-01-03T16:54:32.739Z,91.62
2019-01-03T16:57:04.595Z,91.68
2019-01-03T16:59:36.437Z,91.52
2019-01-03T17:02:08.284Z,91.80
2019-01-03T17:04:40.052Z,91.65
2019-01-03T17:07:12.181Z,91.48
2019-01-03T17:09:44.018Z,91.90
2019-01-03T17:12:15.875Z,91.79
2019-01-03T17:14:47.652Z,91.39
2019-01-03T17:17:19.419Z,91.37
2019-01-03T17:19:51.264Z,92.31
2019-01-03T17:22:23.108Z,91.93
2019-01-03T17:24:54.945Z,92.20
2019-01-03T17:27:26.732Z,92.42
2019-01-03T17:29:58.496Z,92.65
2019-01-03T17:32:30.354Z,91.88
2019-01-03T17:35:02.382Z,91.35
2019-01-03T17:37:34.427Z,91.63
2019-01-03T17:40:08.221Z,91.93
2019-01-03T17:42:40.410Z,92.08
2019-01-03T17:45:12.364Z,91.79
2019-01-03T17:47:44.206Z,91.96
2019-01-03T17:50:17.088Z,92.02
2019-01-03T17:52:48.938Z,92.10
2019-01-03T17:55:20.781Z,92.29
2019-01-03T17:57:52.621Z,92.78
2019-01-03T18:00:24.730Z,92.23
2019-01-03T18:02:56.592Z,92.55
2019-01-03T18:05:28.363Z,92.23
2019-01-03T18:08:00.206Z,92.32
2019-01-03T18:10:32.059Z,92.34
2019-01-03T18:13:04.293Z,91.87
2019-01-03T18:15:36.217Z,91.77
2019-01-03T18:18:08.320Z,91.73
2019-01-03T18:20:40.419Z,92.01
2019-01-03T18:23:12.300Z,92.57
2019-01-03T18:25:44.286Z,91.31
2019-01-03T18:28:16.069Z,91.11
2019-01-03T18:30:47.831Z,90.73
2019-01-03T18:33:19.768Z,91.16
2019-01-03T18:35:51.963Z,91.22
2019-01-03T18:38:23.737Z,90.88
2019-01-03T18:40:55.756Z,91.25
2019-01-03T18:43:27.623Z,91.32
2019-01-03T18:45:59.751Z,91.11
2019-01-03T18:48:31.793Z,90.93
2019-01-03T18:51:03.579Z,90.67
2019-01-03T18:53:35.372Z,90.53
2019-01-03T18:56:07.662Z,90.04
2019-01-03T18:58:39.781Z,90.36
2019-01-03T19:01:11.810Z,89.63
2019-01-03T19:03:43.656Z,89.57
2019-01-03T19:06:15.525Z,89.53
2019-01-03T19:08:47.379Z,90.03
2019-01-03T19:11:19.158Z,89.49
2019-01-03T19:13:50.951Z,89.37
2019-01-03T19:16:23.092Z,89.66
2019-01-03T19:18:55.141Z,90.27
2019-01-03T19:21:26.987Z,90.55
2019-01-03T19:23:58.777Z,90.55
2019-01-03T19:26:30.667Z,90.62
2019-01-03T19:29:02.454Z,90.52
2019-01-03T19:31:34.309Z,89.57
2019-01-03T19:34:07.008Z,89.60
2019-01-03T19:36:39.150Z,89.85
2019-01-03T19:39:11.382Z,90.07
2019-01-03T19:41:43.411Z,89.80
2019-01-03T19:44:15.396Z,89.91
2019-01-03T19:46:47.176Z,90.16
2019-01-03T19:49:19.047Z,89.91
2019-01-03T19:51:50.921Z,90.23
2019-01-03T19:54:22.734Z,90.11
2019-01-03T19:56:54.588Z,90.83
2019-01-03T19:59:26.391Z,91.29
2019-01-03T20:02:04.038Z,91.75
2019-01-03T20:04:36.429Z,91.97
2019-01-03T20:07:09.700Z,92.39
2019-01-03T20:09:42.381Z,93.14
2019-01-03T20:12:15.133Z,93.80
2019-01-03T20:14:47.448Z,93.80
2019-01-03T20:17:19.826Z,93.68
2019-01-03T20:19:52.194Z,93.21
2019-01-03T20:22:24.626Z,93.42
2019-01-03T20:24:57.130Z,93.05
2019-01-03T20:27:29.571Z,93.34
2019-01-03T20:30:02.252Z,93.06
2019-01-03T20:32:34.598Z,94.01
2019-01-03T20:35:06.925Z,94.65
2019-01-03T20:37:39.675Z,93.72
2019-01-03T20:40:12.086Z,94.30
2019-01-03T20:42:44.705Z,92.98
2019-01-03T20:45:17.385Z,93.44
2019-01-03T20:47:50.213Z,93.05
2019-01-03T20:50:22.913Z,93.52
2019-01-03T20:52:55.226Z,93.21
2019-01-03T20:55:28.108Z,93.77
2019-01-03T20:58:00.495Z,93.59
2019-01-03T21:00:34.245Z,93.61
2019-01-03T21:03:06.626Z,94.15
2019-01-03T21:05:40.155Z,93.95
2019-01-03T21:08:12.231Z,93.79
2019-01-03T21:10:44.360Z,93.36
2019-01-03T21:13:16.207Z,93.63
2019-01-03T21:15:48.238Z,94.01
2019-01-03T21:18:20.503Z,94.43
2019-01-03T21:20:52.678Z,95.15
2019-01-03T21:23:24.586Z,94.84
2019-01-03T21:25:56.540Z,93.52
2019-01-03T21:28:28.583Z,93.39
2019-01-03T21:31:00.644Z,92.91
2019-01-03T21:33:32.583Z,92.64
2019-01-03T21:36:04.593Z,92.65
2019-01-03T21:38:36.807Z,93.21
2019-01-03T21:41:09.055Z,93.80
2019-01-03T21:43:40.923Z,93.40
2019-01-03T21:46:12.759Z,93.74
2019-01-03T21:48:44.558Z,94.25
2019-01-03T21:51:16.784Z,94.09
2019-01-03T21:53:48.819Z,94.10
2019-01-03T21:56:20.980Z,94.79
2019-01-03T21:58:52.835Z,94.92
2019-01-03T22:01:24.780Z,94.85
2019-01-03T22:03:56.636Z,93.99
2019-01-03T22:06:28.535Z,94.46
2019-01-03T22:09:00.380Z,94.50
2019-01-03T22:11:32.204Z,94.36
2019-01-03T22:14:05.060Z,94.36
2019-01-03T22:16:36.942Z,93.53
2019-01-03T22:19:09.811Z,93.11
2019-01-03T22:21:41.740Z,94.85
2019-01-03T22:24:13.529Z,95.26
2019-01-03T22:26:45.360Z,94.01
2019-01-03T22:29:17.253Z,94.39
2019-01-03T22:31:49.247Z,94.04
2019-01-03T22:34:21.078Z,93.73
2019-01-03T22:36:53.058Z,94.48
2019-01-03T22:39:24.840Z,94.25
2019-01-03T22:41:56.986Z,94.79
2019-01-03T22:44:29.139Z,94.83
2019-01-03T22:47:01.057Z,94.73
2019-01-03T22:49:33.049Z,94.58
2019-01-03T22:52:04.890Z,94.66
2019-01-03T22:54:36.861Z,94.66
2019-01-03T22:57:08.846Z,94.43
2019-01-03T22:59:41.012Z,94.29
2019-01-03T23:02:13.111Z,94.68
2019-01-03T23:04:49.151Z,94.69
2019-01-03T23:07:18.947Z,94.20
2019-01-03T23:09:50.863Z,94.25
2019-01-03T23:12:22.862Z,94.63
2019-01-03T23:14:54.929Z,94.17
2019-01-03T23:17:26.827Z,93.89
2019-01-03T23:19:58.659Z,93.99
2019-01-03T23:22:30.870Z,94.00
2019-01-03T23:25:02.752Z,93.96
2019-01-03T23:27:34.755Z,93.89
2019-01-03T23:30:07.987Z,93.96
2019-01-03T23:32:39.986Z,93.66
2019-01-03T23:35:11.970Z,94.13
2019-01-03T23:37:43.959Z,93.53
2019-01-03T23:40:15.940Z,93.90
2019-01-03T23:42:47.871Z,94.14
2019-01-03T23:45:24.413Z,93.72
2019-01-03T23:48:01.084Z,94.51
2019-01-03T23:50:37.248Z,94.50
2019-01-03T23:53:09.468Z,95.34
2019-01-03T23:55:46.827Z,94.89
2019-01-03T23:58:18.846Z,95.39
